sensor_id;sensor_type;location;lat;lon;timestamp;pressure;altitude;pressure_sealevel;temperature;humidity
13414;BME280;6778;48.136;11.386;2023-03-01T00:01:29;95871.81;;;1.35;74.52
13414;BME280;6778;48.136;11.386;2023-03-01T00:03:59;95875.63;;;1.31;74.91
13414;BME280;6778;48.136;11.386;2023-03-01T00:06:30;95871.59;;;1.29;74.58
13414;BME280;6778;48.136;11.386;2023-03-01T00:09:00;95866.13;;;1.32;74.55
13414;BME280;6778;48.136;11.386;2023-03-01T00:11:31;95863.38;;;1.33;74.86
13414;BME280;6778;48.136;11.386;2023-03-01T00:14:02;95855.66;;;1.33;75.05
13414;BME280;6778;48.136;11.386;2023-03-01T00:16:38;95859.13;;;1.42;74.48
13414;BME280;6778;48.136;11.386;2023-03-01T00:19:11;95857.94;;;1.36;74.59
13414;BME280;6778;48.136;11.386;2023-03-01T00:21:43;95858.97;;;1.26;74.90
13414;BME280;6778;48.136;11.386;2023-03-01T00:24:13;95857.72;;;1.30;75.02
13414;BME280;6778;48.136;11.386;2023-03-01T00:26:44;95855.66;;;1.33;74.52
13414;BME280;6778;48.136;11.386;2023-03-01T00:29:14;95858.44;;;1.40;74.39
13414;BME280;6778;48.136;11.386;2023-03-01T00:31:46;95856.22;;;1.27;74.57
13414;BME280;6778;48.136;11.386;2023-03-01T00:34:16;95856.69;;;1.23;74.70
13414;BME280;6778;48.136;11.386;2023-03-01T00:36:47;95853.94;;;1.24;74.99
13414;BME280;6778;48.136;11.386;2023-03-01T00:39:17;95839.94;;;1.27;74.81
13414;BME280;6778;48.136;11.386;2023-03-01T00:41:47;95847.59;;;1.19;75.18
13414;BME280;6778;48.136;11.386;2023-03-01T00:44:17;95839.56;;;1.22;75.43
13414;BME280;6778;48.136;11.386;2023-03-01T00:46:51;95838.03;;;1.29;75.06
13414;BME280;6778;48.136;11.386;2023-03-01T00:49:21;95844.13;;;1.28;74.71
13414;BME280;6778;48.136;11.386;2023-03-01T00:51:55;95837.34;;;1.27;74.31
13414;BME280;6778;48.136;11.386;2023-03-01T00:54:25;95839.50;;;1.31;75.06
13414;BME280;6778;48.136;11.386;2023-03-01T00:56:56;95832.34;;;1.25;74.81
13414;BME280;6778;48.136;11.386;2023-03-01T00:59:25;95835.31;;;1.30;74.53
13414;BME280;6778;48.136;11.386;2023-03-01T01:01:59;95831.69;;;1.23;74.81
13414;BME280;6778;48.136;11.386;2023-03-01T01:04:30;95822.47;;;1.21;75.13
13414;BME280;6778;48.136;11.386;2023-03-01T01:07:04;95822.03;;;1.25;74.95
13414;BME280;6778;48.136;11.386;2023-03-01T01:09:37;95815.75;;;1.28;74.96
13414;BME280;6778;48.136;11.386;2023-03-01T01:12:07;95810.25;;;1.23;74.95
13414;BME280;6778;48.136;11.386;2023-03-01T01:14:38;95810.09;;;1.24;75.24
13414;BME280;6778;48.136;11.386;2023-03-01T01:17:11;95801.59;;;1.14;74.96
13414;BME280;6778;48.136;11.386;2023-03-01T01:19:41;95809.22;;;1.16;74.79
13414;BME280;6778;48.136;11.386;2023-03-01T01:22:11;95800.97;;;1.30;75.09
13414;BME280;6778;48.136;11.386;2023-03-01T01:24:43;95800.50;;;1.17;75.00
13414;BME280;6778;48.136;11.386;2023-03-01T01:27:13;95796.16;;;1.17;74.68
13414;BME280;6778;48.136;11.386;2023-03-01T01:29:43;95795.34;;;1.17;74.72
13414;BME280;6778;48.136;11.386;2023-03-01T01:32:16;95789.44;;;1.24;74.53
13414;BME280;6778;48.136;11.386;2023-03-01T01:34:47;95787.59;;;1.17;74.70
13414;BME280;6778;48.136;11.386;2023-03-01T01:37:17;95787.22;;;1.12;74.64
13414;BME280;6778;48.136;11.386;2023-03-01T01:39:47;95788.25;;;1.19;75.20
13414;BME280;6778;48.136;11.386;2023-03-01T01:42:18;95782.28;;;1.18;74.61
13414;BME280;6778;48.136;11.386;2023-03-01T01:44:48;95777.94;;;1.19;75.05
13414;BME280;6778;48.136;11.386;2023-03-01T01:47:40;95777.88;;;1.11;74.37
13414;BME280;6778;48.136;11.386;2023-03-01T01:50:16;95779.34;;;1.13;74.10
13414;BME280;6778;48.136;11.386;2023-03-01T01:52:50;95777.06;;;1.10;74.48
13414;BME280;6778;48.136;11.386;2023-03-01T01:55:24;95769.97;;;1.12;74.94
13414;BME280;6778;48.136;11.386;2023-03-01T01:57:59;95770.50;;;1.16;74.77
13414;BME280;6778;48.136;11.386;2023-03-01T02:00:31;95764.81;;;1.12;74.92
13414;BME280;6778;48.136;11.386;2023-03-01T02:03:10;95766.38;;;1.23;74.55
13414;BME280;6778;48.136;11.386;2023-03-01T02:05:48;95763.06;;;1.13;74.73
13414;BME280;6778;48.136;11.386;2023-03-01T02:08:25;95763.63;;;1.06;74.92
13414;BME280;6778;48.136;11.386;2023-03-01T02:10:58;95765.25;;;1.07;75.09
13414;BME280;6778;48.136;11.386;2023-03-01T02:13:32;95754.34;;;1.14;74.91
13414;BME280;6778;48.136;11.386;2023-03-01T02:16:04;95758.47;;;1.06;74.80
13414;BME280;6778;48.136;11.386;2023-03-01T02:18:38;95759.00;;;1.10;74.84
13414;BME280;6778;48.136;11.386;2023-03-01T02:21:24;95758.69;;;1.13;74.96
13414;BME280;6778;48.136;11.386;2023-03-01T02:24:04;95750.91;;;1.05;74.65
13414;BME280;6778;48.136;11.386;2023-03-01T02:26:47;95751.06;;;1.03;75.24
13414;BME280;6778;48.136;11.386;2023-03-01T02:29:22;95751.69;;;1.05;74.92
13414;BME280;6778;48.136;11.386;2023-03-01T02:31:57;95744.84;;;1.14;75.13
13414;BME280;6778;48.136;11.386;2023-03-01T02:34:27;95741.31;;;1.15;74.96
13414;BME280;6778;48.136;11.386;2023-03-01T02:37:02;95741.03;;;1.18;74.74
13414;BME280;6778;48.136;11.386;2023-03-01T02:39:42;95741.19;;;1.17;75.25
13414;BME280;6778;48.136;11.386;2023-03-01T02:42:20;95746.47;;;1.15;75.43
13414;BME280;6778;48.136;11.386;2023-03-01T02:44:56;95741.69;;;1.20;75.06
13414;BME280;6778;48.136;11.386;2023-03-01T02:47:26;95737.19;;;1.22;74.90
13414;BME280;6778;48.136;11.386;2023-03-01T02:49:56;95737.78;;;1.16;75.24
13414;BME280;6778;48.136;11.386;2023-03-01T02:52:39;95734.09;;;1.19;74.82
13414;BME280;6778;48.136;11.386;2023-03-01T02:55:13;95735.88;;;1.18;75.01
13414;BME280;6778;48.136;11.386;2023-03-01T02:57:46;95734.69;;;1.13;75.00
13414;BME280;6778;48.136;11.386;2023-03-01T03:00:24;95737.19;;;1.04;75.27
13414;BME280;6778;48.136;11.386;2023-03-01T03:02:57;95728.34;;;1.07;75.27
13414;BME280;6778;48.136;11.386;2023-03-01T03:05:30;95730.91;;;1.07;74.74
13414;BME280;6778;48.136;11.386;2023-03-01T03:08:02;95730.78;;;1.08;74.77
13414;BME280;6778;48.136;11.386;2023-03-01T03:10:38;95741.47;;;1.14;74.56
13414;BME280;6778;48.136;11.386;2023-03-01T03:13:12;95742.13;;;1.16;74.10
13414;BME280;6778;48.136;11.386;2023-03-01T03:15:46;95739.84;;;1.13;74.60
13414;BME280;6778;48.136;11.386;2023-03-01T03:18:17;95744.69;;;0.98;74.72
13414;BME280;6778;48.136;11.386;2023-03-01T03:20:48;95743.97;;;1.05;74.61
13414;BME280;6778;48.136;11.386;2023-03-01T03:23:22;95748.41;;;0.95;74.65
13414;BME280;6778;48.136;11.386;2023-03-01T03:25:52;95739.16;;;0.93;75.10
13414;BME280;6778;48.136;11.386;2023-03-01T03:28:22;95733.84;;;0.94;74.81
13414;BME280;6778;48.136;11.386;2023-03-01T03:30:54;95736.22;;;1.05;74.50
13414;BME280;6778;48.136;11.386;2023-03-01T03:33:25;95740.44;;;1.06;74.66
13414;BME280;6778;48.136;11.386;2023-03-01T03:35:55;95733.97;;;1.02;74.03
13414;BME280;6778;48.136;11.386;2023-03-01T03:38:25;95731.66;;;0.99;74.30
13414;BME280;6778;48.136;11.386;2023-03-01T03:41:01;95730.63;;;0.92;74.51
13414;BME280;6778;48.136;11.386;2023-03-01T03:43:34;95727.53;;;1.06;74.80
13414;BME280;6778;48.136;11.386;2023-03-01T03:46:07;95724.56;;;1.01;73.97
13414;BME280;6778;48.136;11.386;2023-03-01T03:48:40;95721.84;;;0.85;73.73
13414;BME280;6778;48.136;11.386;2023-03-01T03:51:12;95723.03;;;0.73;73.96
13414;BME280;6778;48.136;11.386;2023-03-01T03:53:43;95725.75;;;0.71;74.10
13414;BME280;6778;48.136;11.386;2023-03-01T03:56:14;95721.19;;;0.83;74.33
13414;BME280;6778;48.136;11.386;2023-03-01T03:58:44;95718.91;;;0.80;74.65
13414;BME280;6778;48.136;11.386;2023-03-01T04:01:16;95717.72;;;0.74;74.45
13414;BME280;6778;48.136;11.386;2023-03-01T04:03:47;95708.97;;;0.85;74.23
13414;BME280;6778;48.136;11.386;2023-03-01T04:06:21;95696.44;;;0.90;73.57
13414;BME280;6778;48.136;11.386;2023-03-01T04:08:51;95697.03;;;0.84;73.95
13414;BME280;6778;48.136;11.386;2023-03-01T04:11:27;95703.44;;;0.80;74.35
13414;BME280;6778;48.136;11.386;2023-03-01T04:13:58;95712.66;;;0.82;74.21
13414;BME280;6778;48.136;11.386;2023-03-01T04:16:33;95700.63;;;0.73;74.47
13414;BME280;6778;48.136;11.386;2023-03-01T04:19:03;95699.97;;;0.71;74.34
13414;BME280;6778;48.136;11.386;2023-03-01T04:21:34;95695.34;;;0.75;74.69
13414;BME280;6778;48.136;11.386;2023-03-01T04:24:04;95702.41;;;0.73;74.22
13414;BME280;6778;48.136;11.386;2023-03-01T04:26:36;95703.09;;;0.75;74.10
13414;BME280;6778;48.136;11.386;2023-03-01T04:29:06;95697.69;;;0.68;74.21
13414;BME280;6778;48.136;11.386;2023-03-01T04:31:39;95703.28;;;0.64;73.75
13414;BME280;6778;48.136;11.386;2023-03-01T04:34:09;95707.63;;;0.63;74.11
13414;BME280;6778;48.136;11.386;2023-03-01T04:36:40;95702.09;;;0.58;74.22
13414;BME280;6778;48.136;11.386;2023-03-01T04:39:11;95708.03;;;0.41;74.30
13414;BME280;6778;48.136;11.386;2023-03-01T04:41:42;95694.28;;;0.50;74.68
13414;BME280;6778;48.136;11.386;2023-03-01T04:44:12;95695.34;;;0.47;74.56
13414;BME280;6778;48.136;11.386;2023-03-01T04:46:48;95695.34;;;0.47;75.00
13414;BME280;6778;48.136;11.386;2023-03-01T04:49:19;95695.66;;;0.44;75.27
13414;BME280;6778;48.136;11.386;2023-03-01T04:51:49;95699.28;;;0.51;75.21
13414;BME280;6778;48.136;11.386;2023-03-01T04:54:19;95690.53;;;0.62;74.57
13414;BME280;6778;48.136;11.386;2023-03-01T04:56:49;95693.16;;;0.52;74.93
13414;BME280;6778;48.136;11.386;2023-03-01T04:59:19;95686.47;;;0.42;74.92
13414;BME280;6778;48.136;11.386;2023-03-01T05:01:55;95691.03;;;0.48;75.03
13414;BME280;6778;48.136;11.386;2023-03-01T05:04:27;95686.41;;;0.51;75.39
13414;BME280;6778;48.136;11.386;2023-03-01T05:06:57;95690.50;;;0.44;75.44
13414;BME280;6778;48.136;11.386;2023-03-01T05:09:28;95680.22;;;0.44;75.81
13414;BME280;6778;48.136;11.386;2023-03-01T05:11:58;95684.44;;;0.63;76.05
13414;BME280;6778;48.136;11.386;2023-03-01T05:14:29;95681.78;;;0.55;75.74
13414;BME280;6778;48.136;11.386;2023-03-01T05:17:01;95688.78;;;0.63;75.02
13414;BME280;6778;48.136;11.386;2023-03-01T05:19:32;95679.19;;;0.73;74.98
13414;BME280;6778;48.136;11.386;2023-03-01T05:22:02;95678.63;;;0.61;74.98
13414;BME280;6778;48.136;11.386;2023-03-01T05:24:34;95678.16;;;0.66;74.74
13414;BME280;6778;48.136;11.386;2023-03-01T05:27:07;95678.91;;;0.94;72.71
13414;BME280;6778;48.136;11.386;2023-03-01T05:29:38;95677.13;;;1.30;74.86
13414;BME280;6778;48.136;11.386;2023-03-01T05:32:10;95667.94;;;0.74;73.53
13414;BME280;6778;48.136;11.386;2023-03-01T05:34:42;95681.81;;;0.28;74.52
13414;BME280;6778;48.136;11.386;2023-03-01T05:37:15;95679.91;;;-0.08;75.89
13414;BME280;6778;48.136;11.386;2023-03-01T05:39:46;95684.00;;;-0.15;75.76
13414;BME280;6778;48.136;11.386;2023-03-01T05:42:17;95690.34;;;0.01;75.41
13414;BME280;6778;48.136;11.386;2023-03-01T05:44:50;95686.28;;;0.25;75.21
13414;BME280;6778;48.136;11.386;2023-03-01T05:47:23;95679.25;;;-0.10;75.02
13414;BME280;6778;48.136;11.386;2023-03-01T05:49:53;95669.84;;;1.51;72.83
13414;BME280;6778;48.136;11.386;2023-03-01T05:52:23;95669.97;;;1.76;67.36
13414;BME280;6778;48.136;11.386;2023-03-01T05:54:53;95672.84;;;0.49;72.38
13414;BME280;6778;48.136;11.386;2023-03-01T05:57:24;95673.38;;;0.25;74.26
13414;BME280;6778;48.136;11.386;2023-03-01T05:59:54;95684.75;;;0.05;74.77
13414;BME280;6778;48.136;11.386;2023-03-01T06:02:27;95677.09;;;0.13;74.96
13414;BME280;6778;48.136;11.386;2023-03-01T06:04:58;95674.44;;;0.05;75.57
13414;BME280;6778;48.136;11.386;2023-03-01T06:07:28;95686.09;;;0.09;75.48
13414;BME280;6778;48.136;11.386;2023-03-01T06:09:59;95688.13;;;0.06;75.78
13414;BME280;6778;48.136;11.386;2023-03-01T06:12:30;95680.88;;;0.19;75.09
13414;BME280;6778;48.136;11.386;2023-03-01T06:15:01;95692.66;;;-0.06;76.03
13414;BME280;6778;48.136;11.386;2023-03-01T06:17:36;95690.91;;;-0.15;75.84
13414;BME280;6778;48.136;11.386;2023-03-01T06:20:11;95693.25;;;-0.22;75.95
13414;BME280;6778;48.136;11.386;2023-03-01T06:22:42;95700.31;;;-0.24;76.34
13414;BME280;6778;48.136;11.386;2023-03-01T06:25:15;95688.53;;;-0.26;76.24
13414;BME280;6778;48.136;11.386;2023-03-01T06:27:47;95695.81;;;-0.22;76.42
13414;BME280;6778;48.136;11.386;2023-03-01T06:30:21;95683.75;;;-0.21;76.70
13414;BME280;6778;48.136;11.386;2023-03-01T06:32:56;95695.56;;;-0.19;76.35
13414;BME280;6778;48.136;11.386;2023-03-01T06:35:29;95699.50;;;-0.24;76.78
13414;BME280;6778;48.136;11.386;2023-03-01T06:38:02;95698.41;;;-0.22;76.79
13414;BME280;6778;48.136;11.386;2023-03-01T06:40:34;95693.94;;;-0.20;76.68
13414;BME280;6778;48.136;11.386;2023-03-01T06:43:05;95693.53;;;-0.25;76.90
13414;BME280;6778;48.136;11.386;2023-03-01T06:45:35;95700.56;;;-0.17;76.53
13414;BME280;6778;48.136;11.386;2023-03-01T06:48:09;95695.66;;;-0.11;76.66
13414;BME280;6778;48.136;11.386;2023-03-01T06:50:39;95703.22;;;-0.09;76.62
13414;BME280;6778;48.136;11.386;2023-03-01T06:53:10;95685.75;;;-0.06;76.60
13414;BME280;6778;48.136;11.386;2023-03-01T06:55:40;95691.91;;;0.11;75.91
13414;BME280;6778;48.136;11.386;2023-03-01T06:58:10;95698.06;;;0.01;76.35
13414;BME280;6778;48.136;11.386;2023-03-01T07:00:41;95698.47;;;-0.04;76.49
13414;BME280;6778;48.136;11.386;2023-03-01T07:03:16;95696.41;;;-0.01;75.90
13414;BME280;6778;48.136;11.386;2023-03-01T07:05:48;95697.81;;;-0.06;76.21
13414;BME280;6778;48.136;11.386;2023-03-01T07:08:19;95699.34;;;-0.13;76.28
13414;BME280;6778;48.136;11.386;2023-03-01T07:10:55;95704.50;;;0.14;76.73
13414;BME280;6778;48.136;11.386;2023-03-01T07:13:25;95695.03;;;0.05;76.56
13414;BME280;6778;48.136;11.386;2023-03-01T07:15:55;95697.13;;;0.19;76.50
13414;BME280;6778;48.136;11.386;2023-03-01T07:18:28;95702.97;;;-0.06;76.52
13414;BME280;6778;48.136;11.386;2023-03-01T07:21:04;95693.44;;;0.04;76.42
13414;BME280;6778;48.136;11.386;2023-03-01T07:23:35;95692.22;;;-0.02;76.50
13414;BME280;6778;48.136;11.386;2023-03-01T07:26:05;95690.91;;;-0.06;76.10
13414;BME280;6778;48.136;11.386;2023-03-01T07:28:36;95687.00;;;0.18;76.10
13414;BME280;6778;48.136;11.386;2023-03-01T07:31:06;95679.25;;;0.18;75.58
13414;BME280;6778;48.136;11.386;2023-03-01T07:33:39;95677.78;;;0.15;75.45
13414;BME280;6778;48.136;11.386;2023-03-01T07:36:10;95688.84;;;-0.02;75.71
13414;BME280;6778;48.136;11.386;2023-03-01T07:38:41;95680.03;;;0.01;75.97
13414;BME280;6778;48.136;11.386;2023-03-01T07:41:11;95681.50;;;0.03;75.81
13414;BME280;6778;48.136;11.386;2023-03-01T07:43:42;95678.84;;;-0.05;75.95
13414;BME280;6778;48.136;11.386;2023-03-01T07:46:13;95670.66;;;-0.01;75.47
13414;BME280;6778;48.136;11.386;2023-03-01T07:48:46;95671.06;;;0.05;75.81
13414;BME280;6778;48.136;11.386;2023-03-01T07:51:17;95671.22;;;0.03;75.61
13414;BME280;6778;48.136;11.386;2023-03-01T07:53:49;95672.31;;;0.01;75.25
13414;BME280;6778;48.136;11.386;2023-03-01T07:56:20;95668.69;;;-0.07;75.87
13414;BME280;6778;48.136;11.386;2023-03-01T07:58:51;95669.69;;;0.10;75.59
13414;BME280;6778;48.136;11.386;2023-03-01T08:01:21;95671.88;;;0.05;75.46
13414;BME280;6778;48.136;11.386;2023-03-01T08:03:55;95662.50;;;0.14;75.61
13414;BME280;6778;48.136;11.386;2023-03-01T08:06:27;95667.09;;;0.10;75.41
13414;BME280;6778;48.136;11.386;2023-03-01T08:08:59;95666.81;;;0.13;75.80
13414;BME280;6778;48.136;11.386;2023-03-01T08:11:30;95660.81;;;0.68;76.46
13414;BME280;6778;48.136;11.386;2023-03-01T08:14:00;95659.81;;;1.04;76.82
13414;BME280;6778;48.136;11.386;2023-03-01T08:16:31;95648.84;;;1.02;74.73
13414;BME280;6778;48.136;11.386;2023-03-01T08:19:07;95654.66;;;1.22;73.32
13414;BME280;6778;48.136;11.386;2023-03-01T08:21:38;95657.03;;;0.62;73.40
13414;BME280;6778;48.136;11.386;2023-03-01T08:24:08;95653.72;;;0.52;73.84
13414;BME280;6778;48.136;11.386;2023-03-01T08:26:40;95655.66;;;0.68;73.80
13414;BME280;6778;48.136;11.386;2023-03-01T08:29:11;95657.56;;;0.48;73.70
13414;BME280;6778;48.136;11.386;2023-03-01T08:31:42;95660.34;;;0.54;73.88
13414;BME280;6778;48.136;11.386;2023-03-01T08:34:16;95660.34;;;0.72;73.11
13414;BME280;6778;48.136;11.386;2023-03-01T08:36:47;95649.06;;;0.73;73.55
13414;BME280;6778;48.136;11.386;2023-03-01T08:39:20;95660.88;;;0.76;73.68
13414;BME280;6778;48.136;11.386;2023-03-01T08:41:50;95650.84;;;0.91;73.07
13414;BME280;6778;48.136;11.386;2023-03-01T08:44:21;95646.13;;;0.86;72.34
13414;BME280;6778;48.136;11.386;2023-03-01T08:46:52;95642.66;;;0.60;72.79
13414;BME280;6778;48.136;11.386;2023-03-01T08:49:26;95646.38;;;0.75;72.28
13414;BME280;6778;48.136;11.386;2023-03-01T08:51:57;95642.94;;;0.74;72.23
13414;BME280;6778;48.136;11.386;2023-03-01T08:54:29;95632.28;;;0.87;71.55
13414;BME280;6778;48.136;11.386;2023-03-01T08:57:01;95628.88;;;0.87;71.70
13414;BME280;6778;48.136;11.386;2023-03-01T08:59:32;95629.09;;;0.93;71.32
13414;BME280;6778;48.136;11.386;2023-03-01T09:02:10;95634.94;;;0.95;71.83
13414;BME280;6778;48.136;11.386;2023-03-01T09:04:45;95627.63;;;1.08;70.94
13414;BME280;6778;48.136;11.386;2023-03-01T09:07:16;95619.41;;;1.13;70.67
13414;BME280;6778;48.136;11.386;2023-03-01T09:09:47;95622.81;;;1.14;70.58
13414;BME280;6778;48.136;11.386;2023-03-01T09:12:21;95619.25;;;1.15;71.38
13414;BME280;6778;48.136;11.386;2023-03-01T09:14:52;95619.03;;;1.26;70.65
13414;BME280;6778;48.136;11.386;2023-03-01T09:17:25;95628.28;;;1.36;70.71
13414;BME280;6778;48.136;11.386;2023-03-01T09:19:58;95621.31;;;1.29;70.78
13414;BME280;6778;48.136;11.386;2023-03-01T09:22:33;95629.59;;;1.41;70.73
13414;BME280;6778;48.136;11.386;2023-03-01T09:25:04;95627.38;;;1.46;70.05
13414;BME280;6778;48.136;11.386;2023-03-01T09:27:35;95623.34;;;1.43;69.75
13414;BME280;6778;48.136;11.386;2023-03-01T09:30:07;95622.00;;;1.39;70.05
13414;BME280;6778;48.136;11.386;2023-03-01T09:32:37;95614.28;;;1.39;70.35
13414;BME280;6778;48.136;11.386;2023-03-01T09:35:12;95621.84;;;1.67;69.96
13414;BME280;6778;48.136;11.386;2023-03-01T09:37:42;95623.25;;;1.35;70.44
13414;BME280;6778;48.136;11.386;2023-03-01T09:40:17;95620.22;;;1.66;69.89
13414;BME280;6778;48.136;11.386;2023-03-01T09:42:59;95619.91;;;1.69;69.84
13414;BME280;6778;48.136;11.386;2023-03-01T09:45:35;95617.81;;;1.64;69.34
13414;BME280;6778;48.136;11.386;2023-03-01T09:48:15;95617.59;;;1.57;69.54
13414;BME280;6778;48.136;11.386;2023-03-01T09:50:52;95616.78;;;1.91;68.85
13414;BME280;6778;48.136;11.386;2023-03-01T09:53:31;95614.53;;;1.96;68.81
13414;BME280;6778;48.136;11.386;2023-03-01T09:56:10;95620.50;;;1.62;69.73
13414;BME280;6778;48.136;11.386;2023-03-01T09:58:53;95623.06;;;1.54;69.76
13414;BME280;6778;48.136;11.386;2023-03-01T10:01:31;95610.06;;;2.06;69.18
13414;BME280;6778;48.136;11.386;2023-03-01T10:04:27;95613.97;;;2.10;68.56
13414;BME280;6778;48.136;11.386;2023-03-01T10:07:21;95613.38;;;2.33;68.10
13414;BME280;6778;48.136;11.386;2023-03-01T10:09:54;95616.06;;;2.23;68.02
13414;BME280;6778;48.136;11.386;2023-03-01T10:12:33;95601.72;;;2.29;68.10
13414;BME280;6778;48.136;11.386;2023-03-01T10:15:09;95605.25;;;2.11;68.80
13414;BME280;6778;48.136;11.386;2023-03-01T10:17:48;95600.28;;;2.26;67.81
13414;BME280;6778;48.136;11.386;2023-03-01T10:20:23;95600.59;;;1.81;69.01
13414;BME280;6778;48.136;11.386;2023-03-01T10:23:00;95596.00;;;2.09;69.16
13414;BME280;6778;48.136;11.386;2023-03-01T10:25:46;95601.53;;;2.22;68.38
13414;BME280;6778;48.136;11.386;2023-03-01T10:28:28;95598.66;;;2.25;68.70
13414;BME280;6778;48.136;11.386;2023-03-01T10:31:02;95593.97;;;2.29;68.08
13414;BME280;6778;48.136;11.386;2023-03-01T10:33:38;95589.66;;;2.45;68.43
13414;BME280;6778;48.136;11.386;2023-03-01T10:36:09;95592.25;;;2.54;66.84
13414;BME280;6778;48.136;11.386;2023-03-01T10:38:53;95599.31;;;2.43;67.86
13414;BME280;6778;48.136;11.386;2023-03-01T10:41:26;95600.84;;;2.79;67.38
13414;BME280;6778;48.136;11.386;2023-03-01T10:43:58;95596.56;;;3.43;64.76
13414;BME280;6778;48.136;11.386;2023-03-01T10:46:32;95592.09;;;2.96;65.54
13414;BME280;6778;48.136;11.386;2023-03-01T10:49:14;95586.63;;;2.99;65.42
13414;BME280;6778;48.136;11.386;2023-03-01T10:51:48;95582.53;;;3.29;64.73
13414;BME280;6778;48.136;11.386;2023-03-01T10:54:27;95563.66;;;5.66;59.69
13414;BME280;6778;48.136;11.386;2023-03-01T10:57:01;95567.28;;;7.51;53.47
13414;BME280;6778;48.136;11.386;2023-03-01T10:59:36;95550.94;;;8.79;49.70
13414;BME280;6778;48.136;11.386;2023-03-01T11:02:16;95547.25;;;7.86;49.64
13414;BME280;6778;48.136;11.386;2023-03-01T11:05:00;95549.63;;;7.81;49.20
13414;BME280;6778;48.136;11.386;2023-03-01T11:07:47;95554.41;;;6.87;51.24
13414;BME280;6778;48.136;11.386;2023-03-01T11:10:23;95551.25;;;6.91;50.03
13414;BME280;6778;48.136;11.386;2023-03-01T11:13:07;95544.19;;;6.85;50.59
13414;BME280;6778;48.136;11.386;2023-03-01T11:15:38;95537.53;;;5.89;53.21
13414;BME280;6778;48.136;11.386;2023-03-01T11:18:19;95531.13;;;5.40;54.81
13414;BME280;6778;48.136;11.386;2023-03-01T11:21:07;95528.44;;;5.48;54.88
13414;BME280;6778;48.136;11.386;2023-03-01T11:23:39;95511.53;;;5.89;53.29
13414;BME280;6778;48.136;11.386;2023-03-01T11:26:15;95519.72;;;5.86;54.59
13414;BME280;6778;48.136;11.386;2023-03-01T11:28:53;95515.19;;;6.09;53.75
13414;BME280;6778;48.136;11.386;2023-03-01T11:31:27;95524.69;;;5.22;55.70
13414;BME280;6778;48.136;11.386;2023-03-01T11:34:08;95507.97;;;4.86;57.34
13414;BME280;6778;48.136;11.386;2023-03-01T11:36:45;95503.53;;;5.25;56.45
13414;BME280;6778;48.136;11.386;2023-03-01T11:39:29;95490.59;;;4.87;57.25
13414;BME280;6778;48.136;11.386;2023-03-01T11:42:11;95486.44;;;5.30;57.66
13414;BME280;6778;48.136;11.386;2023-03-01T11:44:50;95474.91;;;5.84;58.21
13414;BME280;6778;48.136;11.386;2023-03-01T11:47:37;95486.59;;;5.14;56.27
13414;BME280;6778;48.136;11.386;2023-03-01T11:50:19;95480.69;;;5.20;56.96
13414;BME280;6778;48.136;11.386;2023-03-01T11:53:23;95469.22;;;6.31;55.38
13414;BME280;6778;48.136;11.386;2023-03-01T11:56:07;95472.66;;;6.81;55.52
13414;BME280;6778;48.136;11.386;2023-03-01T11:59:03;95470.13;;;6.94;54.50
13414;BME280;6778;48.136;11.386;2023-03-01T12:01:57;95470.22;;;6.51;54.48
13414;BME280;6778;48.136;11.386;2023-03-01T12:04:53;95466.19;;;7.33;54.19
13414;BME280;6778;48.136;11.386;2023-03-01T12:07:35;95464.03;;;7.08;53.27
13414;BME280;6778;48.136;11.386;2023-03-01T12:10:25;95463.97;;;6.24;53.88
13414;BME280;6778;48.136;11.386;2023-03-01T12:13:13;95461.78;;;6.28;53.46
13414;BME280;6778;48.136;11.386;2023-03-01T12:19:26;95443.00;;;6.54;54.72
13414;BME280;6778;48.136;11.386;2023-03-01T12:22:14;95442.91;;;6.19;54.64
13414;BME280;6778;48.136;11.386;2023-03-01T12:25:06;95443.38;;;6.29;55.37
13414;BME280;6778;48.136;11.386;2023-03-01T12:28:03;95439.97;;;6.29;54.89
13414;BME280;6778;48.136;11.386;2023-03-01T12:30:55;95444.19;;;6.09;55.08
13414;BME280;6778;48.136;11.386;2023-03-01T12:33:45;95434.31;;;5.83;56.07
13414;BME280;6778;48.136;11.386;2023-03-01T12:36:42;95434.97;;;6.27;55.33
13414;BME280;6778;48.136;11.386;2023-03-01T12:39:32;95426.19;;;6.07;56.08
13414;BME280;6778;48.136;11.386;2023-03-01T12:42:16;95421.88;;;6.42;56.02
13414;BME280;6778;48.136;11.386;2023-03-01T12:45:05;95433.31;;;5.84;56.44
13414;BME280;6778;48.136;11.386;2023-03-01T12:48:02;95414.00;;;5.71;56.42
13414;BME280;6778;48.136;11.386;2023-03-01T12:50:43;95413.88;;;5.80;56.58
13414;BME280;6778;48.136;11.386;2023-03-01T12:53:23;95416.19;;;5.89;57.14
13414;BME280;6778;48.136;11.386;2023-03-01T12:55:58;95421.03;;;6.14;56.24
13414;BME280;6778;48.136;11.386;2023-03-01T12:58:33;95428.59;;;5.72;56.65
13414;BME280;6778;48.136;11.386;2023-03-01T13:01:25;95422.78;;;5.70;57.73
13414;BME280;6778;48.136;11.386;2023-03-01T13:04:21;95420.06;;;5.93;57.20
13414;BME280;6778;48.136;11.386;2023-03-01T13:07:19;95427.03;;;5.93;57.16
13414;BME280;6778;48.136;11.386;2023-03-01T13:10:08;95420.16;;;5.85;57.22
13414;BME280;6778;48.136;11.386;2023-03-01T13:12:50;95415.16;;;5.69;57.73
13414;BME280;6778;48.136;11.386;2023-03-01T13:15:29;95409.94;;;5.84;58.03
13414;BME280;6778;48.136;11.386;2023-03-01T13:18:01;95414.72;;;5.65;58.32
13414;BME280;6778;48.136;11.386;2023-03-01T13:20:45;95414.94;;;5.85;58.51
13414;BME280;6778;48.136;11.386;2023-03-01T13:23:29;95405.59;;;5.55;57.88
13414;BME280;6778;48.136;11.386;2023-03-01T13:26:04;95417.03;;;5.39;58.40
13414;BME280;6778;48.136;11.386;2023-03-01T13:28:47;95412.53;;;5.47;58.53
13414;BME280;6778;48.136;11.386;2023-03-01T13:34:44;95418.50;;;5.63;58.79
13414;BME280;6778;48.136;11.386;2023-03-01T13:37:32;95416.78;;;5.70;58.58
13414;BME280;6778;48.136;11.386;2023-03-01T13:43:31;95405.28;;;5.28;58.34
13414;BME280;6778;48.136;11.386;2023-03-01T13:46:08;95402.63;;;5.72;59.17
13414;BME280;6778;48.136;11.386;2023-03-01T13:48:40;95400.53;;;5.83;58.93
13414;BME280;6778;48.136;11.386;2023-03-01T13:51:11;95399.44;;;5.56;58.17
13414;BME280;6778;48.136;11.386;2023-03-01T13:53:45;95400.31;;;5.63;59.14
13414;BME280;6778;48.136;11.386;2023-03-01T13:56:24;95406.88;;;5.59;59.22
13414;BME280;6778;48.136;11.386;2023-03-01T13:59:01;95393.81;;;5.52;59.73
13414;BME280;6778;48.136;11.386;2023-03-01T14:01:34;95389.28;;;5.61;59.78